createdAt,value
2022-10-02T04:02:24.449Z,84.22
2022-10-02T04:06:29.034Z,83.89
2022-10-02T04:10:40.587Z,84.42
2022-10-02T04:14:49.066Z,84.57
2022-10-02T04:18:59.395Z,84.00
2022-10-02T04:23:10.046Z,84.41
2022-10-02T04:27:18.221Z,84.55
2022-10-02T04:31:20.951Z,84.45
2022-10-02T04:35:34.019Z,85.21
2022-10-02T04:39:55.195Z,85.31
2022-10-02T04:44:10.396Z,84.94
2022-10-02T04:48:56.956Z,84.80
2022-10-02T04:53:24.920Z,84.13
2022-10-02T04:57:59.571Z,84.09
2022-10-02T05:02:14.499Z,84.08
2022-10-02T05:06:33.580Z,84.29
2022-10-02T05:11:04.084Z,85.68
2022-10-02T05:15:22.615Z,86.05
2022-10-02T05:19:43.129Z,86.18
2022-10-02T05:23:59.633Z,85.66
2022-10-02T05:28:21.852Z,86.00
2022-10-02T05:32:45.108Z,85.80
2022-10-02T05:37:00.222Z,85.79
2022-10-02T05:41:08.666Z,85.58
2022-10-02T05:45:26.143Z,85.62
2022-10-02T05:49:35.490Z,85.36
2022-10-02T05:53:41.464Z,85.03
2022-10-02T05:57:49.639Z,85.64
2022-10-02T06:01:56.726Z,85.25
2022-10-02T06:06:07.124Z,85.30
2022-10-02T06:10:15.090Z,85.34
2022-10-02T06:14:26.449Z,85.41
2022-10-02T06:18:34.580Z,85.39
2022-10-02T06:22:44.752Z,85.23
2022-10-02T06:26:52.058Z,84.82
2022-10-02T06:31:00.562Z,84.59
2022-10-02T06:35:11.884Z,84.48
2022-10-02T06:39:32.644Z,84.05
2022-10-02T06:44:04.491Z,83.23
2022-10-02T06:48:15.224Z,82.67
2022-10-02T06:52:34.447Z,82.12
2022-10-02T06:56:52.138Z,81.98
2022-10-02T07:01:02.798Z,82.34
2022-10-02T07:05:28.838Z,82.93
2022-10-02T07:09:54.219Z,82.84
2022-10-02T07:14:16.739Z,82.67
2022-10-02T07:18:32.618Z,82.55
2022-10-02T07:22:51.156Z,82.21
2022-10-02T07:27:04.639Z,81.26
2022-10-02T07:31:18.753Z,81.46
2022-10-02T07:35:37.798Z,81.65
2022-10-02T07:39:55.785Z,81.75
2022-10-02T07:44:12.626Z,81.89
2022-10-02T07:48:26.176Z,81.24
2022-10-02T07:52:45.537Z,80.80
2022-10-02T07:56:50.053Z,79.98
2022-10-02T08:01:01.342Z,80.13
2022-10-02T08:05:09.958Z,79.78
2022-10-02T08:09:21.738Z,78.91
2022-10-02T08:13:28.858Z,78.78
2022-10-02T08:17:36.828Z,78.23
2022-10-02T08:21:43.871Z,77.78
2022-10-02T08:25:52.584Z,76.92
2022-10-02T08:29:59.835Z,76.26
2022-10-02T08:34:14.719Z,75.05
2022-10-02T08:38:33.527Z,75.09
2022-10-02T08:43:11.693Z,75.61
2022-10-02T08:47:51.103Z,74.78
2022-10-02T08:52:35.933Z,74.85
2022-10-02T08:56:58.471Z,74.67
2022-10-02T09:01:14.909Z,75.23
2022-10-02T09:06:04.307Z,74.77
2022-10-02T09:10:50.682Z,72.72
2022-10-02T09:15:05.314Z,71.17
2022-10-02T09:19:25.344Z,71.17
2022-10-02T09:24:16.675Z,70.97
2022-10-02T09:28:57.926Z,71.40
2022-10-02T09:33:43.933Z,70.83
2022-10-02T09:38:29.468Z,69.36
2022-10-02T09:42:58.215Z,68.86
2022-10-02T09:47:32.024Z,69.95
2022-10-02T09:52:03.878Z,71.54
2022-10-02T09:56:34.642Z,70.96
2022-10-02T10:01:02.728Z,70.93
2022-10-02T10:05:36.319Z,71.51
2022-10-02T10:10:06.051Z,71.36
2022-10-02T10:14:40.234Z,71.37
2022-10-02T10:19:31.267Z,70.12
2022-10-02T10:23:49.662Z,69.28
2022-10-02T10:28:25.412Z,69.35
2022-10-02T10:33:09.133Z,68.79
2022-10-02T10:37:40.834Z,65.65
2022-10-02T10:42:26.836Z,63.25
2022-10-02T10:46:54.078Z,62.14
2022-10-02T10:51:14.135Z,62.71
2022-10-02T10:55:20.094Z,63.03
2022-10-02T11:00:07.193Z,62.32
2022-10-02T11:04:40.635Z,63.54
2022-10-02T11:09:19.315Z,63.11
2022-10-02T11:13:41.570Z,60.27
2022-10-02T11:17:57.444Z,60.73
2022-10-02T11:22:37.693Z,61.30
2022-10-02T11:26:53.991Z,60.73
2022-10-02T11:31:11.536Z,61.79
2022-10-02T11:35:23.345Z,61.88
2022-10-02T11:39:45.514Z,61.84
2022-10-02T11:44:09.380Z,62.00
2022-10-02T11:48:32.017Z,62.30
2022-10-02T11:53:16.095Z,61.77
2022-10-02T11:57:34.371Z,61.61
2022-10-02T12:01:45.203Z,61.13
2022-10-02T12:05:58.183Z,59.98
2022-10-02T12:10:23.316Z,60.84
2022-10-02T12:14:37.258Z,60.72
2022-10-02T12:18:55.611Z,59.65
2022-10-02T12:23:25.555Z,61.81
2022-10-02T12:27:50.791Z,62.38
2022-10-02T12:32:07.911Z,61.89
2022-10-02T12:36:43.246Z,63.05
2022-10-02T12:40:55.338Z,62.60
2022-10-02T12:45:19.731Z,63.54
2022-10-02T12:49:36.286Z,63.75
2022-10-02T12:54:09.927Z,64.75
2022-10-02T12:58:23.023Z,65.01
2022-10-02T13:03:01.845Z,64.16
2022-10-02T13:07:34.977Z,64.31
2022-10-02T13:11:54.948Z,61.72
2022-10-02T13:16:08.495Z,60.13
2022-10-02T13:20:20.522Z,61.97
2022-10-02T13:24:37.897Z,61.94
2022-10-02T13:29:16.382Z,62.71
2022-10-02T13:33:34.883Z,61.91
2022-10-02T13:37:45.124Z,62.12
2022-10-02T13:42:03.083Z,62.41
2022-10-02T13:46:17.163Z,64.35
2022-10-02T13:50:26.891Z,65.00
2022-10-02T13:54:51.041Z,65.31
2022-10-02T13:59:23.932Z,65.06
2022-10-02T14:03:43.158Z,65.34
2022-10-02T14:08:01.546Z,66.67
2022-10-02T14:12:27.587Z,67.79
2022-10-02T14:16:44.723Z,66.41
2022-10-02T14:20:53.994Z,64.09
2022-10-02T14:25:10.880Z,63.97
2022-10-02T14:29:36.562Z,62.23
2022-10-02T14:33:57.976Z,58.97
2022-10-02T14:38:15.412Z,55.86
2022-10-02T14:42:41.801Z,57.22
2022-10-02T14:46:59.290Z,57.10
2022-10-02T14:51:20.398Z,59.29
2022-10-02T14:55:37.025Z,60.23
2022-10-02T14:59:57.424Z,61.84
2022-10-02T15:04:21.914Z,88.60
2022-10-02T15:08:32.731Z,100.00
2022-10-02T15:12:47.855Z,96.32
2022-10-02T15:17:18.475Z,68.04
2022-10-02T15:21:28.407Z,65.19
2022-10-02T15:25:57.006Z,61.92
2022-10-02T15:30:15.119Z,61.04
2022-10-02T15:34:28.077Z,60.38
2022-10-02T15:39:09.951Z,60.72
2022-10-02T15:43:48.414Z,60.38
2022-10-02T15:48:10.045Z,60.65
2022-10-02T15:52:24.186Z,61.24
2022-10-02T15:56:41.134Z,61.38
2022-10-02T16:01:08.703Z,61.47
2022-10-02T16:05:21.901Z,60.33
2022-10-02T16:09:42.605Z,58.47
2022-10-02T16:13:55.373Z,59.27
2022-10-02T16:18:24.522Z,58.00
2022-10-02T16:22:46.503Z,58.19
2022-10-02T16:27:28.566Z,56.12
2022-10-02T16:31:45.845Z,55.45
2022-10-02T16:36:03.426Z,55.88
2022-10-02T16:40:22.909Z,53.47
2022-10-02T16:44:54.585Z,54.83
2022-10-02T16:49:02.902Z,55.17
2022-10-02T16:53:12.570Z,53.45
2022-10-02T16:57:23.426Z,54.42
2022-10-02T17:01:31.445Z,53.52
2022-10-02T17:05:45.873Z,52.53
2022-10-02T17:09:55.930Z,52.87
2022-10-02T17:14:11.003Z,53.00
2022-10-02T17:18:23.409Z,53.89
2022-10-02T17:22:34.128Z,52.73
2022-10-02T17:26:46.264Z,52.11
2022-10-02T17:31:08.822Z,51.61
2022-10-02T17:35:17.531Z,50.81
2022-10-02T17:39:36.384Z,50.16
2022-10-02T17:43:51.603Z,49.42
2022-10-02T17:48:04.131Z,50.48
2022-10-02T17:52:36.340Z,49.56
2022-10-02T17:56:55.267Z,50.08
2022-10-02T18:01:07.010Z,49.84
2022-10-02T18:05:24.953Z,50.30
2022-10-02T18:09:43.764Z,49.77
2022-10-02T18:13:59.637Z,50.28
2022-10-02T18:18:19.668Z,50.68
2022-10-02T18:22:39.648Z,50.28
2022-10-02T18:26:57.698Z,50.21
2022-10-02T18:31:15.894Z,50.46
2022-10-02T18:35:32.143Z,50.16
2022-10-02T18:39:41.827Z,50.05
2022-10-02T18:43:55.995Z,50.36
2022-10-02T18:48:04.239Z,49.89
2022-10-02T18:52:24.119Z,49.86
2022-10-02T18:56:46.849Z,50.37
2022-10-02T19:01:05.973Z,50.36
2022-10-02T19:05:26.298Z,50.07
2022-10-02T19:09:31.855Z,50.01
2022-10-02T19:13:41.645Z,50.61
2022-10-02T19:17:58.163Z,50.63
2022-10-02T19:22:03.058Z,50.75
2022-10-02T19:26:17.854Z,50.93
2022-10-02T19:30:23.594Z,50.71
2022-10-02T19:34:30.510Z,50.58
2022-10-02T19:38:36.543Z,49.84
2022-10-02T19:42:47.192Z,49.70
2022-10-02T19:46:53.253Z,49.93
2022-10-02T19:50:58.411Z,49.94
2022-10-02T19:55:04.470Z,50.49
2022-10-02T19:59:17.968Z,50.43
2022-10-02T20:03:23.258Z,50.67
2022-10-02T20:07:29.518Z,50.81
2022-10-02T20:11:37.817Z,50.34
2022-10-02T20:16:04.412Z,50.29
2022-10-02T20:20:13.050Z,50.33
2022-10-02T20:24:21.085Z,50.03
2022-10-02T20:28:29.345Z,49.99
2022-10-02T20:32:38.198Z,49.72
2022-10-02T20:36:50.029Z,49.38
2022-10-02T20:40:56.355Z,50.20
2022-10-02T20:44:59.018Z,50.58
2022-10-02T20:49:23.791Z,50.84
2022-10-02T20:53:58.664Z,50.81
2022-10-02T20:58:21.691Z,51.11
